Date,TemperatureHighF,TemperatureAvgF,TemperatureLowF,DewpointHighF,DewpointAvgF,DewpointLowF,HumidityHigh,HumidityAvg,HumidityLow,PressureMaxIn,PressureMinIn,WindSpeedMaxMPH,WindSpeedAvgMPH,GustSpeedMaxMPH,PrecipitationSumIn
2013-5-1,58.4,48.5,36.9,45.8,39.0,31.0,97,72,36,30.49,30.39,16,2,16,0.00
2013-5-2,63.3,50.2,41.8,50.4,40.8,32.8,94,72,42,30.54,30.42,12,1,15,0.01
2013-5-3,56.4,47.2,36.9,45.4,40.0,34.0,91,77,58,30.57,30.40,15,2,15,0.00
2013-5-4,54.8,45.2,38.2,42.7,39.0,35.6,94,80,57,30.42,30.35,17,2,17,0.00
2013-5-5,53.5,45.6,35.9,43.1,38.9,33.8,94,78,56,30.36,30.28,17,2,17,0.00
2013-5-6,54.6,46.6,39.6,47.2,43.2,37.5,95,88,70,30.31,30.20,14,3,16,0.01
2013-5-7,59.8,39.6,-90.0,52.8,36.6,-90.5,96,90,72,30.22,30.12,14,2,16,0.00
2013-5-8,66.5,56.6,47.3,60.0,53.4,45.9,99,89,78,30.26,30.13,14,2,14,0.09
2013-5-9,60.0,53.6,50.2,58.3,52.0,48.8,96,94,89,30.12,29.92,9,1,9,0.68
2013-5-10,59.9,33.5,-90.0,58.2,31.9,-90.5,97,94,85,29.99,29.91,12,2,12,0.03
2013-5-11,58.0,53.8,50.3,55.4,52.3,49.2,96,95,90,29.95,29.70,19,3,19,0.20
2013-5-12,62.4,11.5,-90.0,58.4,8.4,-90.5,97,90,59,29.75,29.55,16,2,16,0.05
2013-5-13,56.8,50.5,42.1,41.7,32.9,29.9,80,52,37,30.01,29.74,17,3,17,0.00
2013-5-14,59.0,48.0,38.9,42.7,35.0,28.5,85,63,34,30.04,29.95,17,2,17,0.00
2013-5-15,58.2,48.7,37.3,47.9,39.3,30.1,93,72,36,30.03,29.67,19,3,21,0.18
2013-5-16,77.3,47.0,-90.0,54.7,33.4,-90.7,96,67,27,29.80,29.57,17,3,19,0.00
2013-5-17,66.2,56.8,47.0,45.7,40.9,36.3,84,57,36,30.22,29.80,18,3,18,0.00
2013-5-18,59.2,50.1,41.3,45.4,42.8,39.2,93,77,52,30.36,30.21,18,2,18,0.00
2013-5-19,62.2,51.8,44.6,49.9,46.4,42.1,94,83,62,30.38,30.24,11,1,11,0.06
2013-5-20,67.9,21.6,-90.0,61.8,19.6,-90.5,96,93,77,30.25,29.93,15,2,16,0.65
2013-5-21,54.8,50.4,48.1,53.4,48.4,46.1,95,93,89,30.14,29.97,16,1,16,0.24
2013-5-22,56.8,50.8,47.9,52.8,48.9,46.5,100,93,85,30.04,29.92,7,1,10,0.35
2013-5-23,58.2,53.2,48.1,57.1,51.6,46.7,100,95,90,29.97,29.83,18,2,18,0.07
2013-5-24,58.8,-37.1,-90.0,57.7,-37.9,-90.5,97,96,95,29.85,29.66,22,4,22,0.98
2013-5-25,51.7,48.1,45.7,50.6,46.6,44.3,100,95,90,29.84,29.64,26,6,26,0.30
2013-5-26,56.0,48.8,44.7,47.0,43.3,38.1,100,82,59,30.00,29.59,19,4,19,0.20
2013-5-27,67.0,52.4,41.1,42.8,38.1,34.9,92,62,32,30.07,29.99,21,3,21,0.00
2013-5-28,66.4,59.3,40.6,47.4,44.0,37.8,92,59,40,30.26,30.17,15,3,15,0.00
2013-5-29,54.3,0.8,-90.0,53.0,-0.4,-90.5,96,95,89,30.22,30.01,12,1,12,0.22
2013-5-30,77.8,5.2,-90.0,69.0,0.3,-90.7,97,85,61,30.07,29.99,11,1,11,0.03
2013-5-31,79.8,67.1,56.1,67.6,60.6,54.4,96,81,60,30.06,29.90,20,1,20,0.00